Time;durP1;ratioP1;P1;durP2;ratioP2;P2;SDS_P1;SDS_P2;PMS_P1;PMS_P2;Temp;Humidity;BMP_temperature;BMP_pressure;BME280_temperature;BME280_humidity;BME280_pressure;Samples;Min_cycle;Max_cycle;Signal;HPM_P1;HPM_P2
2022/04/10 00:00:43;;;;;;;7.82;2.20;;;4.00;99.90;;;;;;5034013;28;20539;-71
2022/04/10 00:03:09;;;;;;;6.05;1.70;;;4.00;99.90;;;;;;5034300;28;20056;-71
2022/04/10 00:05:38;;;;;;;10.65;2.03;;;4.00;99.90;;;;;;5066984;28;20041;-70
2022/04/10 00:08:04;;;;;;;9.07;2.25;;;4.00;99.90;;;;;;5051010;28;20047;-71
2022/04/10 00:10:30;;;;;;;5.80;1.70;;;4.00;99.90;;;;;;5054466;28;20127;-71
2022/04/10 00:12:55;;;;;;;;;;;3.90;99.90;;;;;;5072994;28;20159;-70
2022/04/10 00:15:21;;;;;;;6.90;2.67;;;3.90;99.90;;;;;;5073210;28;19985;-71
2022/04/10 00:17:47;;;;;;;9.40;1.88;;;3.90;99.90;;;;;;5072853;28;20041;-71
2022/04/10 00:20:13;;;;;;;;;;;3.90;99.90;;;;;;5073731;28;20090;-71
2022/04/10 00:22:46;;;;;;;8.18;2.05;;;3.90;99.90;;;;;;5072647;28;19920;-71
2022/04/10 00:25:14;;;;;;;8.93;2.20;;;3.90;99.90;;;;;;5055069;28;20120;-71
2022/04/10 00:27:41;;;;;;;7.35;1.65;;;3.90;99.90;;;;;;5054964;28;20036;-71
2022/04/10 00:30:11;;;;;;;7.75;2.20;;;3.90;99.90;;;;;;5055218;28;20053;-71
2022/04/10 00:32:37;;;;;;;7.28;2.05;;;3.90;99.90;;;;;;5054079;28;20044;-71
2022/04/10 00:35:07;;;;;;;9.95;1.95;;;3.90;99.90;;;;;;5072915;28;20048;-70
2022/04/10 00:37:34;;;;;;;8.18;1.80;;;3.90;99.90;;;;;;5054947;28;20051;-71
2022/04/10 00:39:59;;;;;;;6.97;1.88;;;3.90;99.90;;;;;;5054331;28;20400;-71
2022/04/10 00:42:32;;;;;;;;;;;3.90;99.90;;;;;;5054549;28;20040;-71
2022/04/10 00:44:57;;;;;;;12.85;2.15;;;3.90;99.90;;;;;;5073073;28;20018;-71
2022/04/10 00:47:23;;;;;;;;;;;3.90;99.90;;;;;;5072516;28;20122;-71
2022/04/10 00:49:48;;;;;;;8.18;1.90;;;3.90;99.90;;;;;;5054807;28;20337;-71
2022/04/10 00:52:14;;;;;;;;;;;3.90;99.90;;;;;;5055140;28;20456;-71
2022/04/10 00:54:40;;;;;;;6.80;1.92;;;5.00;99.90;;;;;;5072055;28;19925;-70
2022/04/10 00:57:06;;;;;;;;;;;4.10;99.90;;;;;;5073228;28;20514;-70
2022/04/10 00:59:31;;;;;;;10.27;2.08;;;3.90;99.90;;;;;;5072350;28;19927;-70
2022/04/10 01:01:57;;;;;;;;;;;3.90;99.90;;;;;;5072872;28;20116;-70
2022/04/10 01:04:23;;;;;;;10.45;1.70;;;3.90;99.90;;;;;;5072168;28;19916;-70
2022/04/10 01:06:49;;;;;;;;;;;3.90;99.90;;;;;;5055131;28;20558;-70
2022/04/10 01:09:16;;;;;;;4.28;1.63;;;3.90;99.90;;;;;;5071622;28;20264;-70
2022/04/10 01:11:42;;;;;;;4.65;1.40;;;3.90;99.90;;;;;;5053464;28;20048;-70
2022/04/10 01:14:12;;;;;;;;;;;3.90;99.90;;;;;;5072065;28;20052;-70
2022/04/10 01:16:38;;;;;;;9.00;1.60;;;3.90;99.90;;;;;;5054525;28;19946;-70
2022/04/10 01:19:04;;;;;;;;;;;3.90;99.90;;;;;;5055099;28;20589;-70
2022/04/10 01:21:43;;;;;;;3.80;1.63;;;3.90;99.90;;;;;;5071825;28;19925;-70
2022/04/10 01:24:16;;;;;;;7.88;1.92;;;3.90;99.90;;;;;;5072060;28;20123;-70
2022/04/10 01:26:43;;;;;;;6.38;1.73;;;3.90;99.90;;;;;;5072630;28;20043;-71
2022/04/10 01:29:13;;;;;;;10.60;2.97;;;3.90;99.90;;;;;;5072074;28;20055;-71
2022/04/10 01:31:41;;;;;;;10.48;2.00;;;3.90;99.90;;;;;;5046314;28;20074;-71
2022/04/10 01:34:10;;;;;;;7.45;1.73;;;3.90;99.90;;;;;;5051686;28;20032;-71
2022/04/10 01:36:37;;;;;;;6.93;2.00;;;3.90;99.90;;;;;;5053051;28;20048;-72
2022/04/10 01:39:04;;;;;;;8.57;1.60;;;3.90;99.90;;;;;;5065910;28;20102;-71
2022/04/10 01:41:31;;;;;;;9.07;1.88;;;3.90;99.90;;;;;;5070993;28;20369;-70
2022/04/10 01:43:58;;;;;;;5.10;1.67;;;3.90;99.90;;;;;;5053026;28;20055;-70
2022/04/10 01:46:26;;;;;;;7.35;2.05;;;3.90;99.90;;;;;;5069654;28;20040;-70
2022/04/10 01:48:51;;;;;;;7.95;2.38;;;3.90;99.90;;;;;;5050671;28;20044;-70
2022/04/10 01:51:17;;;;;;;;;;;3.90;99.90;;;;;;5050271;28;20045;-70
2022/04/10 01:53:43;;;;;;;8.05;1.98;;;3.90;99.90;;;;;;5052152;28;20376;-70
2022/04/10 01:56:09;;;;;;;;;;;4.00;99.90;;;;;;5034847;28;20515;-71
2022/04/10 01:58:41;;;;;;;7.70;1.80;;;3.90;99.90;;;;;;5032984;28;20548;-70
2022/04/10 02:01:08;;;;;;;8.30;1.63;;;3.90;99.90;;;;;;5034447;28;20056;-71
2022/04/10 02:03:34;;;;;;;8.10;1.80;;;3.90;99.90;;;;;;5051158;28;20041;-72
2022/04/10 02:06:00;;;;;;;;;;;3.80;99.90;;;;;;5041498;28;20044;-71
2022/04/10 02:08:33;;;;;;;8.50;1.77;;;3.80;99.90;;;;;;5064356;28;19943;-70
2022/04/10 02:10:59;;;;;;;6.13;1.40;;;3.80;99.90;;;;;;5057588;28;20136;-70
2022/04/10 02:13:25;;;;;;;;;;;3.70;99.90;;;;;;5049653;28;20163;-70
2022/04/10 02:15:51;;;;;;;5.50;2.10;;;4.00;99.90;;;;;;5051493;28;19943;-71
2022/04/10 02:18:16;;;;;;;;;;;3.80;99.90;;;;;;5032524;28;20056;-70
2022/04/10 02:20:45;;;;;;;7.40;1.60;;;3.90;99.90;;;;;;5049544;28;20011;-70
2022/04/10 02:23:10;;;;;;;;;;;3.90;99.90;;;;;;5034672;28;20179;-71
2022/04/10 02:25:36;;;;;;;3.65;1.23;;;4.00;99.90;;;;;;5052808;28;20363;-71
2022/04/10 02:28:01;;;;;;;;;;;4.10;99.90;;;;;;5034720;28;20437;-71
2022/04/10 02:30:27;;;;;;;3.13;0.90;;;4.10;99.90;;;;;;5065627;28;19927;-71
2022/04/10 02:32:52;;;;;;;;;;;4.00;99.90;;;;;;5053178;28;20041;-71
2022/04/10 02:35:18;;;;;;;1.80;0.70;;;3.90;99.90;;;;;;5053427;28;20021;-71
2022/04/10 02:37:46;;;;;;;;;;;3.70;99.90;;;;;;5054205;28;20060;-71
2022/04/10 02:40:18;;;;;;;1.20;0.75;;;3.70;99.90;;;;;;5071256;28;20318;-71
2022/04/10 02:42:43;;;;;;;3.38;1.10;;;3.70;99.90;;;;;;5074303;28;20381;-71
2022/04/10 02:45:09;;;;;;;;;;;3.60;99.90;;;;;;5057887;28;20047;-71
2022/04/10 02:47:35;;;;;;;2.20;0.90;;;3.60;99.90;;;;;;5056555;28;19924;-70
2022/04/10 02:50:00;;;;;;;;;;;3.60;99.90;;;;;;5057717;28;20048;-70
2022/04/10 02:52:26;;;;;;;3.58;1.13;;;3.50;99.90;;;;;;5056334;28;19954;-71
2022/04/10 02:54:52;;;;;;;;;;;3.50;99.90;;;;;;5074796;28;20507;-71
2022/04/10 02:57:17;;;;;;;3.38;1.20;;;3.50;99.90;;;;;;5057264;28;19920;-71
2022/04/10 02:59:43;;;;;;;;;;;3.50;99.90;;;;;;5057005;28;20052;-71
2022/04/10 03:02:09;;;;;;;7.13;1.30;;;3.40;99.90;;;;;;5075043;28;20023;-72
2022/04/10 03:04:34;;;;;;;;;;;3.40;99.90;;;;;;5074797;28;20044;-71
2022/04/10 03:07:00;;;;;;;7.80;1.08;;;3.50;99.90;;;;;;5074290;28;19924;-71
2022/04/10 03:09:26;;;;;;;;;;;3.50;99.90;;;;;;5056548;28;20472;-72
2022/04/10 03:11:51;;;;;;;6.05;1.52;;;3.50;99.90;;;;;;5074175;28;19920;-72
2022/04/10 03:14:17;;;;;;;;;;;3.50;99.90;;;;;;5056128;28;20131;-71
2022/04/10 03:16:43;;;;;;;8.15;1.35;;;3.50;99.90;;;;;;5074950;28;19924;-71
2022/04/10 03:19:09;;;;;;;;;;;3.50;99.90;;;;;;5056987;28;20060;-71
2022/04/10 03:21:34;;;;;;;5.38;1.20;;;3.50;99.90;;;;;;5056006;28;19936;-71
2022/04/10 03:24:01;;;;;;;;;;;3.40;99.90;;;;;;5057009;28;20494;-71
2022/04/10 03:26:27;;;;;;;5.53;1.20;;;3.40;99.90;;;;;;5055967;28;19927;-70
2022/04/10 03:28:53;;;;;;;4.88;1.27;;;3.40;99.90;;;;;;5074123;28;20066;-71
2022/04/10 03:31:20;;;;;;;;;;;3.40;99.90;;;;;;5074354;28;20499;-71
2022/04/10 03:33:46;;;;;;;3.65;1.17;;;3.60;99.90;;;;;;5056536;28;19926;-71
2022/04/10 03:36:12;;;;;;;;;;;3.30;99.90;;;;;;5051700;28;20044;-71
2022/04/10 03:38:38;;;;;;;4.13;1.10;;;3.30;99.90;;;;;;5053750;28;19947;-71
2022/04/10 03:41:03;;;;;;;;;;;3.30;99.90;;;;;;5054525;28;20049;-71
2022/04/10 03:43:29;;;;;;;3.58;1.20;;;3.60;99.90;;;;;;5035369;28;19921;-70
2022/04/10 03:45:54;;;;;;;;;;;3.20;99.90;;;;;;5057762;28;20059;-70
2022/04/10 03:48:20;;;;;;;3.90;1.40;;;3.30;99.90;;;;;;5055545;28;19921;-71
2022/04/10 03:50:46;;;;;;;;;;;3.20;99.90;;;;;;5055361;28;20051;-71
2022/04/10 03:53:11;;;;;;;5.05;1.40;;;3.20;99.90;;;;;;5073692;28;19920;-70
2022/04/10 03:55:37;;;;;;;;;;;3.20;99.90;;;;;;5055888;28;20108;-70
2022/04/10 03:58:02;;;;;;;4.13;1.30;;;3.10;99.90;;;;;;5073519;28;20015;-71
2022/04/10 04:00:28;;;;;;;;;;;3.10;99.90;;;;;;5055872;28;20078;-70
2022/04/10 04:02:56;;;;;;;5.40;1.30;;;3.10;99.90;;;;;;5072828;28;19928;-70
2022/04/10 04:05:22;;;;;;;4.35;1.25;;;3.10;99.90;;;;;;5073227;28;20036;-70
2022/04/10 04:07:47;;;;;;;;;;;3.20;99.90;;;;;;5074135;28;20056;-70
2022/04/10 04:10:22;;;;;;;3.70;1.17;;;3.20;99.90;;;;;;5073214;28;19928;-70
2022/04/10 04:12:48;;;;;;;8.52;1.23;;;3.30;99.90;;;;;;5073125;28;20052;-70
2022/04/10 04:15:13;;;;;;;;;;;3.30;99.90;;;;;;5073865;28;20048;-70
2022/04/10 04:17:39;;;;;;;6.18;1.30;;;3.30;99.90;;;;;;5072379;28;19920;-71
2022/04/10 04:20:05;;;;;;;;;;;3.40;99.90;;;;;;5055843;28;20507;-71
2022/04/10 04:22:31;;;;;;;6.00;1.25;;;3.40;99.90;;;;;;5072721;28;19927;-71
2022/04/10 04:24:56;;;;;;;;;;;3.40;99.90;;;;;;5055231;28;20044;-71
2022/04/10 04:27:22;;;;;;;6.15;1.40;;;3.50;99.90;;;;;;5073036;28;20334;-71
2022/04/10 04:29:47;;;;;;;4.60;1.40;;;3.50;99.90;;;;;;5055511;28;20143;-71
2022/04/10 04:32:13;;;;;;;;;;;3.60;99.90;;;;;;5072633;28;20041;-71
2022/04/10 04:34:41;;;;;;;5.60;1.42;;;3.60;99.90;;;;;;5054533;28;19946;-71
2022/04/10 04:37:09;;;;;;;5.97;1.38;;;3.70;99.90;;;;;;5055530;28;20476;-71
2022/04/10 04:39:35;;;;;;;4.32;1.17;;;3.70;99.90;;;;;;5071621;28;20425;-71
2022/04/10 04:42:00;;;;;;;4.28;0.98;;;3.70;99.90;;;;;;5072557;28;20072;-71
2022/04/10 04:44:26;;;;;;;;;;;3.60;99.90;;;;;;5055023;28;20075;-71
2022/04/10 04:46:51;;;;;;;4.50;1.30;;;3.60;99.90;;;;;;5054367;28;19920;-71
2022/04/10 04:49:17;;;;;;;;;;;3.60;99.90;;;;;;5072584;28;20090;-71
2022/04/10 04:51:42;;;;;;;4.32;1.13;;;3.70;99.90;;;;;;5072862;28;19920;-71
2022/04/10 04:54:08;;;;;;;4.53;1.42;;;3.60;99.90;;;;;;5071994;28;20495;-71
2022/04/10 04:56:40;;;;;;;;;;;4.30;99.90;;;;;;5072825;28;20364;-71
2022/04/10 04:59:05;;;;;;;5.97;1.25;;;3.70;99.90;;;;;;5072478;28;19927;-71
2022/04/10 05:01:31;;;;;;;;;;;3.70;99.90;;;;;;5054826;28;20045;-71
2022/04/10 05:03:57;;;;;;;4.95;1.38;;;4.00;99.90;;;;;;5054566;28;19970;-71
2022/04/10 05:06:22;;;;;;;;;;;3.70;99.90;;;;;;5072411;28;20395;-71
2022/04/10 05:08:48;;;;;;;3.72;1.15;;;3.70;99.90;;;;;;5051135;28;19990;-71
2022/04/10 05:11:14;;;;;;;;;;;3.70;99.90;;;;;;5053150;28;20045;-71
2022/04/10 05:13:40;;;;;;;2.72;1.13;;;3.80;99.90;;;;;;5051659;28;19921;-71
2022/04/10 05:16:07;;;;;;;4.75;1.13;;;3.80;99.90;;;;;;5052461;28;20049;-71
2022/04/10 05:18:33;;;;;;;3.65;1.13;;;3.80;99.90;;;;;;5052139;28;20069;-71
2022/04/10 05:20:58;;;;;;;;;;;3.80;99.90;;;;;;5052318;28;20149;-71
2022/04/10 05:23:24;;;;;;;4.65;1.30;;;3.80;99.90;;;;;;5054367;28;19928;-71
2022/04/10 05:25:50;;;;;;;;;;;3.70;99.90;;;;;;5055176;28;20044;-71
2022/04/10 05:28:16;;;;;;;5.80;1.38;;;3.60;99.90;;;;;;5053836;28;19921;-71
2022/04/10 05:30:42;;;;;;;;;;;3.60;99.90;;;;;;5055058;28;20377;-70
2022/04/10 05:33:08;;;;;;;5.22;1.40;;;3.60;99.90;;;;;;5071791;28;20275;-71
2022/04/10 05:35:34;;;;;;;;;;;3.60;99.90;;;;;;5047787;28;20049;-71
2022/04/10 05:38:00;;;;;;;5.20;1.63;;;3.60;99.90;;;;;;5071969;28;20363;-70
2022/04/10 05:40:25;;;;;;;;;;;3.60;99.90;;;;;;5054193;28;20476;-70
2022/04/10 05:42:51;;;;;;;3.58;1.55;;;3.60;99.90;;;;;;5053429;28;19943;-70
2022/04/10 05:45:16;;;;;;;;;;;3.60;99.90;;;;;;5054119;28;20049;-70
2022/04/10 05:47:43;;;;;;;5.97;1.70;;;3.60;99.90;;;;;;5072274;28;19920;-70
2022/04/10 05:50:10;;;;;;;6.18;1.67;;;3.60;99.90;;;;;;5071692;28;20055;-70
2022/04/10 05:52:43;;;;;;;5.88;1.90;;;3.70;99.90;;;;;;5053426;28;20067;-69
2022/04/10 05:55:11;;;;;;;3.55;1.33;;;3.70;99.90;;;;;;5053955;28;20082;-70
2022/04/10 05:57:37;;;;;;;8.10;2.00;;;3.70;99.90;;;;;;5071289;28;20044;-70
2022/04/10 06:00:05;;;;;;;;;;;3.80;99.90;;;;;;5058370;28;20430;-70
2022/04/10 06:02:31;;;;;;;6.47;1.50;;;3.90;99.90;;;;;;5075093;28;19974;-70
2022/04/10 06:04:57;;;;;;;6.03;1.75;;;4.00;99.90;;;;;;5057823;28;20443;-71
2022/04/10 06:07:22;;;;;;;;;;;4.20;99.90;;;;;;5057818;28;20044;-70
2022/04/10 06:09:48;;;;;;;7.35;1.90;;;4.40;99.90;;;;;;5055035;28;19948;-71
2022/04/10 06:12:13;;;;;;;;;;;4.50;99.90;;;;;;5058147;28;20102;-71
2022/04/10 06:14:39;;;;;;;9.13;2.13;;;4.60;99.90;;;;;;5073954;28;20405;-70
2022/04/10 06:17:06;;;;;;;;;;;4.60;99.90;;;;;;5055921;28;20048;-71
2022/04/10 06:19:32;;;;;;;6.95;1.73;;;4.60;99.90;;;;;;5074482;28;19950;-71
2022/04/10 06:22:00;;;;;;;;;;;4.70;99.90;;;;;;5054977;28;20049;-71
2022/04/10 06:24:29;;;;;;;5.93;1.80;;;4.70;99.90;;;;;;5040239;28;20372;-71
2022/04/10 06:27:03;;;;;;;5.57;1.77;;;4.80;99.90;;;;;;5037637;28;20049;-71
2022/04/10 06:29:29;;;;;;;5.63;1.80;;;4.80;99.90;;;;;;5037371;28;20549;-70
2022/04/10 06:31:54;;;;;;;;;;;4.90;99.90;;;;;;5037422;28;20094;-71
2022/04/10 06:34:21;;;;;;;5.55;1.60;;;4.90;99.90;;;;;;5054689;28;19965;-71
2022/04/10 06:36:47;;;;;;;3.28;1.48;;;5.00;99.90;;;;;;5055629;28;20048;-71
2022/04/10 06:39:18;;;;;;;10.50;2.15;;;5.20;99.90;;;;;;5042117;28;20475;-71
2022/04/10 06:41:44;;;;;;;5.40;1.40;;;5.40;99.90;;;;;;5075124;28;20044;-71
2022/04/10 06:44:09;;;;;;;;;;;5.60;99.90;;;;;;5075632;28;20480;-71
2022/04/10 06:46:35;;;;;;;5.72;1.83;;;5.70;99.90;;;;;;5056405;28;20379;-71
2022/04/10 06:49:01;;;;;;;;;;;5.80;99.90;;;;;;5057277;28;20131;-71
2022/04/10 06:51:27;;;;;;;5.63;1.70;;;5.90;99.90;;;;;;5074606;28;19920;-71
2022/04/10 06:53:52;;;;;;;;;;;6.10;99.90;;;;;;5056818;28;20454;-71
2022/04/10 06:56:18;;;;;;;8.50;1.95;;;6.30;99.90;;;;;;5074402;28;19947;-71
2022/04/10 06:58:44;;;;;;;7.22;1.55;;;6.40;99.90;;;;;;5056559;28;20044;-71
2022/04/10 07:01:09;;;;;;;;;;;6.60;99.90;;;;;;5053918;28;20400;-71
2022/04/10 07:03:35;;;;;;;5.57;1.60;;;6.80;99.90;;;;;;5054619;28;19931;-72
2022/04/10 07:06:01;;;;;;;;;;;6.90;99.90;;;;;;5054722;28;20037;-72
2022/04/10 07:08:27;;;;;;;5.07;1.50;;;6.90;99.90;;;;;;5036633;28;19928;-71
2022/04/10 07:10:53;;;;;;;6.30;1.98;;;6.80;99.90;;;;;;5035413;28;20099;-71
2022/04/10 07:13:20;;;;;;;6.88;1.52;;;6.70;99.90;;;;;;5053321;28;20480;-71
2022/04/10 07:15:50;;;;;;;4.75;1.80;;;6.70;99.90;;;;;;5063544;28;20049;-71
2022/04/10 07:18:16;;;;;;;7.00;1.80;;;6.80;99.90;;;;;;5074424;28;20055;-72
2022/04/10 07:20:42;;;;;;;8.70;1.75;;;7.00;99.90;;;;;;5074013;28;20040;-72
2022/04/10 07:25:53;;;;;;;8.65;1.90;;;7.30;99.90;;;;;;5056351;28;19971;-71
2022/04/10 07:28:21;;;;;;;9.90;1.60;;;7.40;99.90;;;;;;5055588;28;20040;-71
2022/04/10 07:30:47;;;;;;;6.55;1.73;;;6.60;99.90;;;;;;5056523;28;20087;-73
2022/04/10 07:33:12;;;;;;;;;;;8.80;99.90;;;;;;5074222;28;20076;-71
2022/04/10 07:35:44;;;;;;;5.95;1.75;;;9.80;99.90;;;;;;5073707;28;19921;-71
2022/04/10 07:38:11;;;;;;;8.15;1.60;;;10.90;99.90;;;;;;5073983;28;20380;-71
2022/04/10 07:40:39;;;;;;;8.30;1.70;;;12.30;99.90;;;;;;5073969;28;20037;-73
2022/04/10 07:43:05;;;;;;;7.78;1.60;;;12.90;99.90;;;;;;5072769;28;20032;-71
2022/04/10 07:48:16;;;;;;;5.55;1.60;;;12.10;99.90;;;;;;5052318;28;20037;-71
2022/04/10 07:50:41;;;;;;;;;;;11.60;99.90;;;;;;5055445;28;20122;-71
2022/04/10 07:53:07;;;;;;;7.47;1.70;;;11.70;99.90;;;;;;5054644;28;20692;-72
2022/04/10 07:55:32;;;;;;;;;;;12.30;99.90;;;;;;5072301;28;20039;-72
2022/04/10 07:57:58;;;;;;;5.22;1.65;;;12.90;99.70;;;;;;5071965;28;19920;-72
2022/04/10 08:00:32;;;;;;;5.35;1.40;;;13.50;99.20;;;;;;5054223;28;20044;-77
2022/04/10 08:03:01;;;;;;;4.28;1.38;;;13.40;98.30;;;;;;5053067;28;20545;-76
2022/04/10 08:05:26;;;;;;;6.75;1.67;;;13.20;98.00;;;;;;5072623;28;20891;-77
2022/04/10 08:07:52;;;;;;;;;;;13.30;98.80;;;;;;5073814;28;20064;-74
2022/04/10 08:10:17;;;;;;;6.45;2.10;;;13.30;97.60;;;;;;5069143;28;20383;-73
2022/04/10 08:12:44;;;;;;;4.35;1.45;;;13.50;98.20;;;;;;5053094;28;20057;-71
2022/04/10 08:15:11;;;;;;;5.60;1.30;;;13.90;97.50;;;;;;5040763;28;20512;-71
2022/04/10 08:17:37;;;;;;;2.92;1.25;;;14.70;96.50;;;;;;5046613;28;20049;-71
2022/04/10 08:20:04;;;;;;;3.65;1.35;;;14.60;96.60;;;;;;5055007;28;20044;-70
2022/04/10 08:22:32;;;;;;;8.57;1.83;;;14.10;95.40;;;;;;5061082;28;20568;-72
2022/04/10 08:25:02;;;;;;;6.40;1.60;;;13.50;96.70;;;;;;5052321;28;20411;-70
2022/04/10 08:27:29;;;;;;;5.25;1.50;;;13.60;98.40;;;;;;5035924;28;20052;-76
2022/04/10 08:29:55;;;;;;;3.08;1.10;;;14.20;97.40;;;;;;5047947;28;20111;-71
2022/04/10 08:32:21;;;;;;;6.22;1.30;;;14.90;95.50;;;;;;5048504;28;20084;-72
2022/04/10 08:34:47;;;;;;;4.57;1.55;;;15.70;94.80;;;;;;5048917;28;20114;-71
2022/04/10 08:37:13;;;;;;;6.63;1.67;;;15.90;90.50;;;;;;5047980;28;20496;-70
2022/04/10 08:39:38;;;;;;;6.53;1.80;;;16.60;91.10;;;;;;5049160;28;20127;-72
2022/04/10 08:42:05;;;;;;;4.85;1.50;;;17.00;91.60;;;;;;5064722;28;20442;-73
2022/04/10 08:44:32;;;;;;;6.40;1.58;;;16.30;90.50;;;;;;5068044;28;20052;-72
2022/04/10 08:47:02;;;;;;;7.38;1.98;;;16.40;90.70;;;;;;5049806;28;20052;-72
2022/04/10 08:49:31;;;;;;;4.10;1.60;;;16.60;89.00;;;;;;5048705;28;20048;-72
2022/04/10 08:51:58;;;;;;;3.92;1.25;;;17.20;89.70;;;;;;5049664;28;20048;-73
2022/04/10 08:54:25;;;;;;;5.43;1.50;;;16.80;84.70;;;;;;5049887;28;20047;-71
2022/04/10 08:56:51;;;;;;;4.90;1.48;;;16.60;85.30;;;;;;5068685;28;20114;-71
2022/04/10 08:59:20;;;;;;;5.80;1.60;;;16.30;87.00;;;;;;5067804;28;20525;-71
2022/04/10 09:01:50;;;;;;;6.95;1.60;;;17.10;85.10;;;;;;5049823;28;20056;-71
2022/04/10 09:04:16;;;;;;;6.15;1.58;;;18.40;85.80;;;;;;5068036;28;20458;-71
2022/04/10 09:06:55;;;;;;;4.97;1.50;;;18.30;76.90;;;;;;5067776;28;20048;-71
2022/04/10 09:09:20;;;;;;;6.50;1.80;;;17.10;77.90;;;;;;5050084;28;20123;-71
2022/04/10 09:11:46;;;;;;;4.70;1.52;;;17.00;80.10;;;;;;5050347;28;20459;-70
2022/04/10 09:14:20;;;;;;;4.60;1.45;;;16.90;82.40;;;;;;5046180;28;20052;-70
2022/04/10 09:16:46;;;;;;;3.75;1.60;;;17.60;81.40;;;;;;5048372;28;20044;-70
2022/04/10 09:19:12;;;;;;;5.00;1.67;;;17.50;82.10;;;;;;5043971;28;20638;-70
2022/04/10 09:21:40;;;;;;;7.93;1.52;;;18.20;78.20;;;;;;5027811;28;20428;-70
2022/04/10 09:24:06;;;;;;;7.00;1.60;;;18.20;81.50;;;;;;5027114;28;20057;-70
2022/04/10 09:26:47;;;;;;;5.25;1.52;;;17.10;82.30;;;;;;5025985;28;20132;-70
2022/04/10 09:29:17;;;;;;;6.35;1.27;;;17.20;80.40;;;;;;5028356;28;20054;-70
2022/04/10 09:31:43;;;;;;;7.95;1.80;;;16.60;81.90;;;;;;5027277;28;20057;-70
2022/04/10 09:34:14;;;;;;;5.47;2.20;;;16.30;84.00;;;;;;5050541;28;20068;-71
2022/04/10 09:36:47;;;;;;;7.10;1.58;;;17.10;85.80;;;;;;5051091;28;20488;-71
2022/04/10 09:39:30;;;;;;;5.53;1.48;;;17.00;79.10;;;;;;5051122;28;20048;-70
2022/04/10 09:42:10;;;;;;;5.10;1.40;;;16.70;82.60;;;;;;5050242;28;20124;-70
2022/04/10 09:44:37;;;;;;;3.88;1.30;;;15.80;83.00;;;;;;5051624;28;20053;-70
2022/04/10 09:47:08;;;;;;;4.93;1.50;;;15.40;86.20;;;;;;5050791;28;20122;-71
2022/04/10 09:50:03;;;;;;;6.22;1.30;;;15.20;87.80;;;;;;5050280;28;20056;-71
2022/04/10 09:52:29;;;;;;;4.10;1.58;;;16.00;87.70;;;;;;5052101;28;20132;-71
2022/04/10 09:54:54;;;;;;;4.53;1.50;;;16.00;86.10;;;;;;5051678;28;20128;-71
2022/04/10 09:57:23;;;;;;;3.70;1.35;;;15.70;86.10;;;;;;5051687;28;20045;-71
2022/04/10 09:59:51;;;;;;;4.70;1.38;;;16.50;86.60;;;;;;5050500;28;20500;-71
2022/04/10 10:02:24;;;;;;;3.70;1.40;;;17.60;83.20;;;;;;5051269;28;20053;-70
2022/04/10 10:04:49;;;;;;;4.22;1.63;;;18.60;74.30;;;;;;5050692;28;20051;-71
2022/04/10 10:07:17;;;;;;;4.82;1.30;;;19.30;72.30;;;;;;5050478;28;20053;-71
2022/04/10 10:09:43;;;;;;;3.80;1.20;;;18.60;67.80;;;;;;5051251;28;20052;-71
2022/04/10 10:12:10;;;;;;;4.78;1.40;;;17.90;70.30;;;;;;5052519;28;20056;-71
2022/04/10 10:14:37;;;;;;;3.15;1.05;;;17.90;74.00;;;;;;5071462;28;20178;-71
2022/04/10 10:17:05;;;;;;;3.95;1.30;;;18.90;71.90;;;;;;5071362;28;20056;-71
2022/04/10 10:19:35;;;;;;;3.75;1.15;;;19.80;70.50;;;;;;5060288;28;20067;-71
2022/04/10 10:22:03;;;;;;;4.47;1.60;;;20.30;63.80;;;;;;5053831;28;20056;-71
2022/04/10 10:24:48;;;;;;;4.65;1.63;;;20.70;66.00;;;;;;5052588;28;20063;-71
2022/04/10 10:27:25;;;;;;;6.55;1.63;;;21.20;62.50;;;;;;5071660;28;20105;-71
2022/04/10 10:29:59;;;;;;;5.60;1.60;;;21.60;60.80;;;;;;5053142;28;20059;-70
2022/04/10 10:32:32;;;;;;;4.95;1.45;;;20.80;64.00;;;;;;5055241;28;20049;-70
2022/04/10 10:34:58;;;;;;;3.28;1.38;;;20.50;64.70;;;;;;5074725;28;20438;-70
2022/04/10 10:37:31;;;;;;;3.60;1.35;;;19.50;63.50;;;;;;5074421;28;20044;-70
2022/04/10 10:39:58;;;;;;;4.78;1.67;;;18.10;64.40;;;;;;5057454;28;20090;-70
2022/04/10 10:42:24;;;;;;;6.97;1.73;;;17.90;70.60;;;;;;5056606;28;20052;-70
2022/04/10 10:44:51;;;;;;;5.85;2.03;;;17.90;69.70;;;;;;5074136;28;20040;-69
2022/04/10 10:47:26;;;;;;;6.53;2.35;;;17.50;70.80;;;;;;5074877;28;20051;-69
2022/04/10 10:49:54;;;;;;;6.90;1.75;;;17.70;72.20;;;;;;5057057;28;20480;-69
2022/04/10 10:52:24;;;;;;;5.70;1.85;;;18.40;67.80;;;;;;5073453;28;20059;-69
2022/04/10 10:54:53;;;;;;;5.90;1.70;;;19.50;65.80;;;;;;5056803;28;20044;-69
2022/04/10 10:57:22;;;;;;;3.92;1.20;;;19.20;62.90;;;;;;5074491;28;20612;-70
2022/04/10 10:59:51;;;;;;;3.78;1.50;;;19.40;61.20;;;;;;5074538;28;20493;-69
2022/04/10 11:02:19;;;;;;;5.10;1.60;;;19.60;62.60;;;;;;5056487;28;20113;-70
2022/04/10 11:04:47;;;;;;;5.55;1.40;;;19.80;62.50;;;;;;5074286;28;20174;-70
2022/04/10 11:07:19;;;;;;;4.15;1.40;;;20.40;61.70;;;;;;5056927;28;20078;-70
2022/04/10 11:09:58;;;;;;;3.90;1.33;;;20.90;60.70;;;;;;5074692;28;20048;-69
2022/04/10 11:12:54;;;;;;;3.80;1.25;;;21.00;58.40;;;;;;5073109;28;20060;-69
2022/04/10 11:15:22;;;;;;;5.20;1.73;;;21.30;56.90;;;;;;5034416;28;20049;-70
2022/04/10 11:17:53;;;;;;;3.88;1.63;;;19.90;55.50;;;;;;5055351;28;20040;-70
2022/04/10 11:20:21;;;;;;;4.78;1.45;;;18.90;58.30;;;;;;5055788;28;20041;-70
2022/04/10 11:22:53;;;;;;;6.15;2.58;;;18.90;60.00;;;;;;5061157;28;20036;-70
2022/04/10 11:25:28;;;;;;;5.82;2.53;;;19.50;59.70;;;;;;5072685;28;20048;-70
2022/04/10 11:27:58;;;;;;;8.60;3.63;;;19.50;59.60;;;;;;5052345;28;20055;-71
2022/04/10 11:30:38;;;;;;;10.13;3.72;;;19.40;60.60;;;;;;5070463;28;20074;-71
2022/04/10 11:33:09;;;;;;;6.00;2.13;;;19.70;60.10;;;;;;5054335;28;20139;-71
2022/04/10 11:35:37;;;;;;;11.93;4.15;;;20.40;61.10;;;;;;5072506;28;20045;-70
2022/04/10 11:38:05;;;;;;;4.28;2.00;;;19.60;56.90;;;;;;5055390;28;20052;-70
2022/04/10 11:40:38;;;;;;;4.60;1.15;;;19.30;57.60;;;;;;5054053;28;20123;-70
2022/04/10 11:43:04;;;;;;;6.22;2.17;;;18.40;59.70;;;;;;5073091;28;20037;-70
2022/04/10 11:45:33;;;;;;;4.95;1.58;;;18.00;60.90;;;;;;5072627;28;20041;-70
2022/04/10 11:48:00;;;;;;;3.08;1.20;;;18.50;61.80;;;;;;5051194;28;20077;-70
2022/04/10 11:50:28;;;;;;;8.90;2.00;;;18.90;66.30;;;;;;5053951;28;20052;-69
2022/04/10 11:53:11;;;;;;;3.83;1.38;;;18.20;62.80;;;;;;5052580;28;20530;-70
2022/04/10 11:55:42;;;;;;;4.57;1.13;;;17.90;62.20;;;;;;5033509;28;20127;-70
2022/04/10 11:58:11;;;;;;;3.83;1.30;;;18.30;67.90;;;;;;5035052;28;20491;-70
2022/04/10 12:00:37;;;;;;;2.95;1.20;;;19.10;63.70;;;;;;5052201;28;20036;-70
2022/04/10 12:03:03;;;;;;;7.05;1.70;;;19.70;64.90;;;;;;5051910;28;20091;-70
2022/04/10 12:05:31;;;;;;;5.38;1.55;;;19.60;61.20;;;;;;5061605;28;20044;-71
2022/04/10 12:08:04;;;;;;;3.55;1.52;;;19.90;58.20;;;;;;5048951;28;20546;-73
2022/04/10 12:10:31;;;;;;;4.60;1.20;;;19.40;56.90;;;;;;5044517;28;20053;-70
2022/04/10 12:12:57;;;;;;;8.32;3.80;;;19.10;58.30;;;;;;5028678;28;1045289;-70
2022/04/10 12:15:27;;;;;;;4.20;1.77;;;19.10;57.60;;;;;;5055618;28;20118;-72
2022/04/10 12:18:10;;;;;;;2.28;1.10;;;19.30;60.50;;;;;;5050486;28;20040;-72
2022/04/10 12:20:42;;;;;;;3.17;1.00;;;20.30;59.20;;;;;;5047380;28;20064;-73
2022/04/10 12:23:22;;;;;;;4.93;1.17;;;19.60;56.10;;;;;;5062985;28;20049;-70
2022/04/10 12:25:53;;;;;;;3.25;1.30;;;19.30;57.80;;;;;;5054294;28;20056;-69
2022/04/10 12:28:19;;;;;;;4.93;1.27;;;19.40;56.10;;;;;;5050967;28;20468;-71
2022/04/10 12:30:45;;;;;;;4.80;1.45;;;19.00;59.80;;;;;;5034828;28;20132;-69
2022/04/10 12:33:12;;;;;;;7.38;1.75;;;18.50;60.10;;;;;;5052870;28;20139;-70
2022/04/10 12:35:39;;;;;;;4.18;1.60;;;17.60;61.30;;;;;;5059631;28;20036;-71
2022/04/10 12:38:06;;;;;;;5.90;1.77;;;17.60;63.80;;;;;;5070392;28;20036;-70
2022/04/10 12:40:39;;;;;;;3.35;1.20;;;17.80;67.30;;;;;;5072521;28;20151;-70
2022/04/10 12:43:06;;;;;;;5.35;1.35;;;18.30;64.40;;;;;;5070910;28;20037;-71
2022/04/10 12:45:35;;;;;;;4.78;1.20;;;18.40;65.30;;;;;;5053155;28;20043;-70
2022/04/10 12:48:01;;;;;;;4.03;1.20;;;17.80;66.00;;;;;;5051386;28;20135;-72
2022/04/10 12:50:28;;;;;;;3.28;1.25;;;17.80;67.10;;;;;;5034220;28;20125;-72
2022/04/10 12:52:55;;;;;;;4.68;1.00;;;17.80;69.40;;;;;;5034787;28;20518;-71
2022/04/10 12:55:26;;;;;;;3.22;1.10;;;17.30;64.70;;;;;;5045694;28;20075;-72
2022/04/10 12:58:11;;;;;;;3.85;1.02;;;16.50;71.40;;;;;;5068345;28;20049;-73
2022/04/10 13:00:53;;;;;;;3.00;1.00;;;17.60;72.70;;;;;;5068459;28;20143;-72
2022/04/10 13:03:27;;;;;;;2.65;1.10;;;16.40;74.50;;;;;;5048138;28;20526;-72
2022/04/10 13:06:03;;;;;;;4.15;1.00;;;15.80;77.00;;;;;;5061360;28;20589;-71
2022/04/10 13:08:35;;;;;;;5.00;1.15;;;15.60;79.30;;;;;;5064317;28;20091;-71
2022/04/10 13:11:01;;;;;;;4.88;1.23;;;15.60;81.40;;;;;;5068292;28;20044;-70
2022/04/10 13:13:27;;;;;;;3.30;1.00;;;15.60;81.90;;;;;;5059903;28;20177;-67
2022/04/10 13:15:57;;;;;;;6.40;1.13;;;15.50;82.90;;;;;;5045086;28;20817;-68
2022/04/10 13:18:26;;;;;;;3.42;1.20;;;15.10;85.00;;;;;;5044865;28;20032;-71